createdAt,value
2023-06-05T00:02:14.242Z,25.90
2023-06-05T00:05:16.524Z,25.90
2023-06-05T00:08:18.458Z,26.40
2023-06-05T00:11:21.380Z,25.80
2023-06-05T00:14:23.552Z,25.70
2023-06-05T00:17:25.943Z,25.70
2023-06-05T00:20:27.885Z,25.60
2023-06-05T00:23:30.436Z,25.70
2023-06-05T00:26:32.402Z,25.60
2023-06-05T00:29:34.841Z,25.60
2023-06-05T00:32:37.634Z,25.60
2023-06-05T00:35:40.924Z,25.70
2023-06-05T00:38:42.921Z,25.70
2023-06-05T00:41:45.765Z,25.60
2023-06-05T00:44:49.498Z,25.60
2023-06-05T00:47:52.240Z,25.50
2023-06-05T00:50:54.317Z,25.50
2023-06-05T00:53:56.673Z,25.40
2023-06-05T00:56:59.092Z,25.50
2023-06-05T01:00:03.252Z,25.40
2023-06-05T01:03:05.513Z,25.40
2023-06-05T01:06:08.443Z,25.40
2023-06-05T01:09:11.524Z,25.70
2023-06-05T01:12:31.188Z,25.70
2023-06-05T01:15:34.968Z,25.90
2023-06-05T01:18:41.717Z,25.80
2023-06-05T01:21:44.382Z,26.00
2023-06-05T01:24:48.542Z,26.40
2023-06-05T01:28:16.421Z,26.10
2023-06-05T01:31:22.796Z,26.00
2023-06-05T01:34:27.143Z,25.60
2023-06-05T01:37:37.516Z,25.90
2023-06-05T01:40:41.131Z,26.20
2023-06-05T01:43:45.914Z,26.40
2023-06-05T01:46:48.707Z,26.90
2023-06-05T01:49:51.056Z,26.30
2023-06-05T01:52:53.503Z,26.30
2023-06-05T01:55:59.682Z,26.10
2023-06-05T01:59:07.810Z,25.30
2023-06-05T02:02:10.428Z,25.30
2023-06-05T02:05:14.088Z,25.70
2023-06-05T02:08:20.471Z,25.60
2023-06-05T02:11:22.577Z,25.50
2023-06-05T02:14:26.014Z,26.30
2023-06-05T02:17:28.394Z,25.60
2023-06-05T02:20:32.009Z,25.50
2023-06-05T02:23:34.369Z,25.70
2023-06-05T02:26:36.722Z,25.80
2023-06-05T02:29:38.922Z,25.70
2023-06-05T02:32:47.201Z,25.40
2023-06-05T02:35:49.435Z,25.40
2023-06-05T02:38:53.166Z,25.60
2023-06-05T02:41:57.074Z,25.60
2023-06-05T02:44:59.359Z,25.50
2023-06-05T02:48:01.430Z,26.00
2023-06-05T02:51:04.617Z,25.90
2023-06-05T02:54:06.721Z,25.80
2023-06-05T02:57:09.324Z,25.80
2023-06-05T03:00:17.941Z,25.50
2023-06-05T03:03:21.339Z,25.90
2023-06-05T03:06:28.468Z,25.70
2023-06-05T03:09:33.661Z,25.70
2023-06-05T03:12:35.660Z,25.00
2023-06-05T03:15:38.057Z,24.60
2023-06-05T03:18:40.122Z,24.20
2023-06-05T03:21:43.951Z,23.50
2023-06-05T03:24:46.599Z,23.40
2023-06-05T03:27:49.690Z,23.70
2023-06-05T03:30:51.741Z,24.00
2023-06-05T03:33:54.178Z,24.10
2023-06-05T03:36:59.780Z,24.00
2023-06-05T03:40:02.112Z,24.30
2023-06-05T03:43:04.109Z,24.40
2023-06-05T03:46:06.606Z,24.50
2023-06-05T03:49:10.650Z,24.40
2023-06-05T03:52:15.534Z,24.50
2023-06-05T03:55:17.734Z,24.80
2023-06-05T03:58:20.384Z,24.80
2023-06-05T04:01:22.376Z,24.70
2023-06-05T04:04:24.697Z,24.40
2023-06-05T04:07:26.754Z,24.20
2023-06-05T04:10:29.481Z,24.30
2023-06-05T04:13:31.457Z,24.60
2023-06-05T04:16:35.265Z,24.10
2023-06-05T04:19:37.313Z,23.80
2023-06-05T04:22:39.626Z,23.50
2023-06-05T04:25:46.796Z,23.50
2023-06-05T04:28:51.971Z,23.40
2023-06-05T04:31:55.034Z,23.50
2023-06-05T04:34:57.297Z,22.90
2023-06-05T04:38:00.220Z,23.10
2023-06-05T04:41:02.531Z,22.90
2023-06-05T04:44:04.664Z,22.20
2023-06-05T04:47:07.668Z,21.60
2023-06-05T04:50:10.312Z,21.40
2023-06-05T04:53:12.589Z,21.40
2023-06-05T04:56:14.554Z,21.20
2023-06-05T04:59:16.773Z,21.10
2023-06-05T05:02:18.914Z,20.70
2023-06-05T05:05:21.241Z,20.10
2023-06-05T05:08:23.240Z,19.60
2023-06-05T05:11:25.707Z,19.30
2023-06-05T05:14:28.767Z,19.30
2023-06-05T05:17:32.369Z,18.70
2023-06-05T05:20:35.563Z,18.50
2023-06-05T05:23:37.959Z,18.50
2023-06-05T05:26:42.896Z,17.90
2023-06-05T05:29:45.137Z,17.60
2023-06-05T05:32:47.200Z,17.40
2023-06-05T05:35:49.599Z,17.50
2023-06-05T05:38:51.642Z,17.80
2023-06-05T05:41:54.041Z,17.40
2023-06-05T05:44:56.082Z,17.60
2023-06-05T05:47:58.601Z,17.40
2023-06-05T05:51:00.905Z,17.80
2023-06-05T05:54:03.198Z,17.70
2023-06-05T05:57:05.967Z,17.60
2023-06-05T06:00:13.343Z,17.70
2023-06-05T06:03:17.335Z,17.00
2023-06-05T06:06:19.815Z,17.20
2023-06-05T06:09:21.882Z,16.80
2023-06-05T06:12:24.145Z,16.90
2023-06-05T06:15:26.437Z,16.80
2023-06-05T06:18:28.736Z,17.00
2023-06-05T06:21:30.843Z,16.90
2023-06-05T06:24:33.126Z,17.00
2023-06-05T06:27:36.086Z,17.00
2023-06-05T06:30:38.624Z,17.30
2023-06-05T06:33:40.601Z,17.20
2023-06-05T06:36:44.941Z,17.20
2023-06-05T06:39:47.521Z,17.10
2023-06-05T06:42:51.746Z,16.60
2023-06-05T06:45:54.132Z,16.90
2023-06-05T06:48:56.660Z,17.10
2023-06-05T06:51:58.986Z,16.50
2023-06-05T06:55:01.313Z,16.50
2023-06-05T06:58:03.580Z,16.30
2023-06-05T07:01:06.681Z,16.30
2023-06-05T07:04:08.899Z,16.10
2023-06-05T07:07:13.435Z,16.30
2023-06-05T07:10:15.637Z,16.40
2023-06-05T07:13:17.972Z,16.20
2023-06-05T07:16:19.931Z,16.30
2023-06-05T07:19:22.368Z,16.20
2023-06-05T07:22:27.979Z,16.20
2023-06-05T07:25:30.427Z,16.70
2023-06-05T07:28:32.466Z,16.20
2023-06-05T07:31:34.759Z,15.90
2023-06-05T07:34:37.274Z,16.50
2023-06-05T07:37:40.672Z,15.60
2023-06-05T07:40:42.658Z,16.10
2023-06-05T07:43:45.069Z,15.80
2023-06-05T07:46:49.132Z,15.70
2023-06-05T07:50:04.537Z,16.00
2023-06-05T07:53:06.593Z,16.40
2023-06-05T07:56:08.935Z,16.90
2023-06-05T07:59:11.606Z,15.70
2023-06-05T08:02:13.905Z,15.80
2023-06-05T08:05:18.341Z,15.90
2023-06-05T08:08:21.030Z,16.10
2023-06-05T08:11:23.801Z,16.00
2023-06-05T08:14:26.117Z,15.80
2023-06-05T08:17:29.945Z,15.70
2023-06-05T08:20:32.231Z,15.80
2023-06-05T08:23:34.662Z,15.20
2023-06-05T08:26:37.534Z,15.50
2023-06-05T08:29:39.548Z,15.80
2023-06-05T08:32:42.017Z,16.00
2023-06-05T08:35:44.068Z,16.10
2023-06-05T08:38:46.394Z,16.10
2023-06-05T08:41:53.083Z,15.50
2023-06-05T08:45:02.447Z,15.20
2023-06-05T08:48:06.778Z,15.60
2023-06-05T08:51:14.658Z,15.50
2023-06-05T08:54:18.279Z,15.70
2023-06-05T08:57:22.257Z,16.40
2023-06-05T09:00:26.850Z,16.70
2023-06-05T09:03:29.241Z,17.10
2023-06-05T09:06:34.766Z,16.70
2023-06-05T09:09:37.247Z,17.60
2023-06-05T09:13:02.454Z,17.10
2023-06-05T09:16:04.762Z,16.80
2023-06-05T09:19:07.468Z,17.00
2023-06-05T09:22:11.377Z,16.90
2023-06-05T09:25:13.428Z,17.60
2023-06-05T09:28:16.709Z,16.70
2023-06-05T09:31:19.742Z,17.40
2023-06-05T09:34:31.494Z,17.30
2023-06-05T09:37:38.962Z,17.10
2023-06-05T09:40:42.303Z,17.40
2023-06-05T09:43:44.986Z,17.20
2023-06-05T09:46:55.414Z,17.60
2023-06-05T09:49:57.602Z,17.30
2023-06-05T09:53:00.960Z,17.10
2023-06-05T09:56:03.516Z,17.50
2023-06-05T09:59:07.125Z,18.40
2023-06-05T10:02:09.420Z,17.60
2023-06-05T10:05:14.267Z,16.90
2023-06-05T10:08:17.571Z,16.90
2023-06-05T10:11:24.440Z,17.00
2023-06-05T10:14:26.511Z,17.30
2023-06-05T10:17:29.498Z,16.70
2023-06-05T10:20:33.298Z,16.80
2023-06-05T10:23:37.087Z,16.60
2023-06-05T10:27:13.799Z,17.20
2023-06-05T10:30:42.477Z,17.10
2023-06-05T10:34:00.309Z,17.60
2023-06-05T10:37:33.270Z,16.90
2023-06-05T10:40:35.671Z,16.90
2023-06-05T10:43:49.187Z,17.20
2023-06-05T10:46:51.289Z,17.10
2023-06-05T10:50:22.309Z,17.30
2023-06-05T10:53:46.105Z,17.60
2023-06-05T10:57:04.667Z,17.80
2023-06-05T11:00:10.192Z,17.00
2023-06-05T11:03:12.517Z,17.00
2023-06-05T11:06:14.583Z,16.90
2023-06-05T11:09:17.043Z,16.90
2023-06-05T11:12:19.178Z,16.90
2023-06-05T11:15:40.159Z,16.70
2023-06-05T11:18:42.258Z,17.20
2023-06-05T11:22:10.473Z,17.30
2023-06-05T11:25:19.079Z,17.70
2023-06-05T11:28:42.546Z,17.10
2023-06-05T11:31:45.863Z,17.00
2023-06-05T11:34:48.618Z,17.20
2023-06-05T11:38:19.842Z,17.50
2023-06-05T11:41:25.849Z,17.80
2023-06-05T11:44:36.365Z,17.40
2023-06-05T11:47:40.502Z,17.60
2023-06-05T11:51:05.221Z,17.20
2023-06-05T11:54:15.693Z,17.00
2023-06-05T11:57:18.775Z,16.90
2023-06-05T12:00:25.128Z,16.70
2023-06-05T12:03:29.640Z,16.40
2023-06-05T12:06:32.362Z,16.30
2023-06-05T12:09:34.731Z,16.40
2023-06-05T12:12:52.904Z,16.50
2023-06-05T12:16:01.785Z,16.70
2023-06-05T12:19:15.890Z,16.70
2023-06-05T12:22:18.524Z,16.90
2023-06-05T12:25:24.372Z,17.00
2023-06-05T12:28:27.938Z,16.80
2023-06-05T12:31:40.470Z,16.50
2023-06-05T12:35:00.057Z,16.60
2023-06-05T12:38:03.771Z,16.60
2023-06-05T12:41:09.280Z,16.60
2023-06-05T12:44:11.743Z,16.90
2023-06-05T12:47:13.921Z,17.50
2023-06-05T12:50:17.039Z,17.30
2023-06-05T12:53:19.349Z,17.00
2023-06-05T12:56:28.241Z,16.60
2023-06-05T12:59:32.437Z,16.60
2023-06-05T13:02:37.487Z,17.00
2023-06-05T13:05:39.818Z,16.60
2023-06-05T13:08:42.155Z,16.40
2023-06-05T13:11:44.651Z,16.60
2023-06-05T13:14:46.847Z,16.30
2023-06-05T13:17:50.826Z,16.80
2023-06-05T13:20:53.190Z,17.00
2023-06-05T13:23:55.234Z,17.80
2023-06-05T13:27:00.496Z,17.70
2023-06-05T13:30:06.297Z,17.20
2023-06-05T13:33:08.752Z,17.10
2023-06-05T13:36:11.062Z,16.70
2023-06-05T13:39:13.419Z,17.20
2023-06-05T13:42:16.019Z,17.00
2023-06-05T13:45:18.417Z,17.40
2023-06-05T13:48:20.606Z,17.10
2023-06-05T13:51:23.049Z,16.50
2023-06-05T13:54:25.082Z,16.10
2023-06-05T13:57:28.885Z,16.00
2023-06-05T14:00:31.398Z,16.50
2023-06-05T14:03:33.734Z,16.80
2023-06-05T14:06:39.553Z,17.20
2023-06-05T14:09:42.323Z,16.60
2023-06-05T14:12:44.437Z,16.80
2023-06-05T14:15:46.852Z,17.20
2023-06-05T14:18:49.354Z,16.40
2023-06-05T14:21:51.919Z,16.40
2023-06-05T14:24:54.017Z,16.10
2023-06-05T14:27:57.302Z,16.30
2023-06-05T14:30:59.447Z,16.00
2023-06-05T14:34:01.806Z,16.40
2023-06-05T14:37:04.053Z,15.70
2023-06-05T14:40:07.139Z,15.90
2023-06-05T14:43:09.328Z,15.80
2023-06-05T14:46:11.973Z,15.90
2023-06-05T14:49:14.213Z,16.30
2023-06-05T14:52:16.723Z,16.40
2023-06-05T14:55:18.727Z,16.90
2023-06-05T14:58:21.026Z,17.10
2023-06-05T15:01:23.161Z,16.20
2023-06-05T15:04:26.645Z,16.20
2023-06-05T15:07:48.909Z,15.90
2023-06-05T15:10:51.794Z,16.20
2023-06-05T15:13:53.795Z,16.20
2023-06-05T15:16:56.373Z,16.10
2023-06-05T15:19:58.414Z,15.80
2023-06-05T15:23:15.762Z,15.80
2023-06-05T15:26:18.953Z,15.80
2023-06-05T15:29:21.346Z,16.00
2023-06-05T15:32:23.466Z,16.00
2023-06-05T15:35:28.226Z,16.00
2023-06-05T15:38:30.514Z,15.60
2023-06-05T15:41:32.758Z,15.70
2023-06-05T15:44:34.821Z,15.70
2023-06-05T15:47:38.114Z,15.70
2023-06-05T15:50:41.175Z,15.70
2023-06-05T15:53:54.383Z,15.90
2023-06-05T15:57:09.321Z,15.70
2023-06-05T16:00:12.821Z,15.70
2023-06-05T16:03:18.506Z,15.60
2023-06-05T16:06:21.518Z,15.90
2023-06-05T16:09:24.681Z,15.80
2023-06-05T16:12:27.085Z,16.30
2023-06-05T16:15:29.082Z,15.90
2023-06-05T16:18:31.402Z,16.00
2023-06-05T16:21:35.446Z,16.40
2023-06-05T16:24:38.422Z,16.20
2023-06-05T16:27:40.636Z,16.40
2023-06-05T16:30:43.268Z,16.40
2023-06-05T16:33:45.602Z,16.20
2023-06-05T16:36:47.900Z,16.20
2023-06-05T16:39:51.234Z,16.20
2023-06-05T16:42:53.512Z,16.30
2023-06-05T16:45:56.036Z,16.30
2023-06-05T16:48:58.573Z,16.50
2023-06-05T16:52:00.961Z,16.70
2023-06-05T16:55:04.463Z,16.80
2023-06-05T16:58:06.529Z,16.70
2023-06-05T17:01:09.867Z,16.60
2023-06-05T17:04:12.967Z,16.70
2023-06-05T17:07:15.949Z,16.70
2023-06-05T17:10:18.297Z,16.60
2023-06-05T17:13:20.759Z,16.70
2023-06-05T17:16:22.880Z,16.70
2023-06-05T17:19:25.849Z,16.70
2023-06-05T17:22:28.168Z,16.60
2023-06-05T17:25:30.594Z,16.40
2023-06-05T17:28:32.602Z,16.60
2023-06-05T17:31:34.931Z,16.90
2023-06-05T17:34:37.087Z,17.10
2023-06-05T17:37:39.643Z,17.50
2023-06-05T17:40:42.092Z,17.50
2023-06-05T17:43:44.550Z,17.90
2023-06-05T17:46:47.471Z,18.00
2023-06-05T17:49:50.493Z,18.20
2023-06-05T17:52:52.710Z,18.40
2023-06-05T17:55:55.066Z,18.20
2023-06-05T17:58:57.049Z,18.00
2023-06-05T18:02:00.734Z,18.40
2023-06-05T18:05:04.209Z,18.30
2023-06-05T18:08:06.714Z,18.00
2023-06-05T18:11:08.887Z,18.00
2023-06-05T18:14:11.743Z,18.40
2023-06-05T18:17:14.361Z,18.60
2023-06-05T18:20:16.755Z,18.70
2023-06-05T18:23:18.760Z,18.70
2023-06-05T18:26:21.488Z,18.70
2023-06-05T18:29:23.646Z,18.60
2023-06-05T18:32:27.060Z,18.80
2023-06-05T18:35:29.563Z,19.30
2023-06-05T18:38:32.818Z,19.00
2023-06-05T18:41:34.798Z,19.20
2023-06-05T18:44:37.603Z,19.20
2023-06-05T18:47:39.819Z,19.00
2023-06-05T18:50:42.180Z,19.20
2023-06-05T18:53:45.548Z,19.10
2023-06-05T18:56:50.183Z,19.10
2023-06-05T18:59:53.373Z,19.40
2023-06-05T19:02:56.171Z,19.30
2023-06-05T19:05:58.294Z,19.50
2023-06-05T19:09:00.681Z,19.50
2023-06-05T19:12:03.358Z,19.40
2023-06-05T19:15:06.756Z,19.60
2023-06-05T19:18:09.026Z,19.60
2023-06-05T19:21:13.141Z,19.40
2023-06-05T19:24:15.084Z,19.50
2023-06-05T19:27:18.634Z,19.30
2023-06-05T19:30:21.335Z,19.40
2023-06-05T19:33:23.657Z,19.20
2023-06-05T19:36:25.767Z,19.20
2023-06-05T19:39:29.085Z,19.40
2023-06-05T19:42:31.172Z,19.40
2023-06-05T19:45:33.578Z,19.50
2023-06-05T19:48:35.733Z,19.40
2023-06-05T19:51:43.381Z,19.60
2023-06-05T19:54:45.471Z,19.40
2023-06-05T19:57:47.772Z,20.30
2023-06-05T20:00:49.715Z,20.50
2023-06-05T20:03:52.080Z,21.40
2023-06-05T20:06:54.296Z,20.30
2023-06-05T20:09:57.385Z,20.40
2023-06-05T20:12:59.366Z,20.30
2023-06-05T20:16:01.660Z,20.80
2023-06-05T20:19:03.684Z,20.90
2023-06-05T20:22:07.447Z,20.90
2023-06-05T20:25:10.379Z,20.60
2023-06-05T20:28:12.695Z,21.30
2023-06-05T20:31:15.689Z,21.50
2023-06-05T20:34:18.441Z,21.90
2023-06-05T20:37:31.046Z,21.60
2023-06-05T20:40:38.854Z,21.10
2023-06-05T20:43:42.930Z,21.30
2023-06-05T20:46:47.323Z,21.30
2023-06-05T20:49:50.580Z,20.90
2023-06-05T20:52:54.700Z,21.00
2023-06-05T20:55:57.106Z,21.00
2023-06-05T20:59:02.570Z,21.00
2023-06-05T21:02:04.918Z,21.10
2023-06-05T21:05:08.215Z,21.40
2023-06-05T21:08:10.308Z,20.90
2023-06-05T21:11:12.894Z,20.90
2023-06-05T21:14:14.946Z,21.10
2023-06-05T21:17:17.243Z,21.90
2023-06-05T21:20:19.345Z,21.30
2023-06-05T21:23:21.650Z,22.40
2023-06-05T21:26:24.566Z,22.10
2023-06-05T21:29:28.543Z,21.20
2023-06-05T21:32:30.766Z,21.20
2023-06-05T21:35:33.602Z,21.20
2023-06-05T21:38:35.640Z,22.90
2023-06-05T21:41:37.931Z,21.80
2023-06-05T21:44:44.228Z,23.10
2023-06-05T21:47:46.554Z,21.60
2023-06-05T21:50:48.807Z,23.10
2023-06-05T21:53:51.328Z,21.80
2023-06-05T21:56:54.544Z,22.30
2023-06-05T21:59:57.399Z,21.80
2023-06-05T22:02:59.705Z,21.60
2023-06-05T22:06:02.635Z,22.40
2023-06-05T22:09:05.942Z,21.70
2023-06-05T22:12:12.880Z,22.00
2023-06-05T22:15:17.899Z,22.90
2023-06-05T22:18:26.854Z,22.90
2023-06-05T22:21:33.510Z,23.40
2023-06-05T22:24:38.322Z,23.70
2023-06-05T22:27:40.596Z,23.50
2023-06-05T22:30:42.887Z,23.40
2023-06-05T22:33:46.022Z,23.40
2023-06-05T22:36:48.898Z,23.70
2023-06-05T22:39:51.348Z,23.70
2023-06-05T22:42:53.591Z,24.10
2023-06-05T22:45:56.504Z,24.40
2023-06-05T22:48:58.771Z,24.40
2023-06-05T22:52:00.827Z,24.20
2023-06-05T22:55:03.757Z,24.30
2023-06-05T22:58:05.738Z,23.80
2023-06-05T23:01:08.685Z,24.00
2023-06-05T23:04:14.171Z,23.60
2023-06-05T23:07:16.737Z,24.20
2023-06-05T23:10:18.735Z,23.70
2023-06-05T23:13:22.605Z,24.10
2023-06-05T23:16:25.016Z,23.90
2023-06-05T23:19:28.902Z,23.70
2023-06-05T23:22:30.945Z,23.60
2023-06-05T23:25:35.875Z,23.10
2023-06-05T23:28:38.224Z,23.90
2023-06-05T23:31:40.589Z,23.60
2023-06-05T23:34:42.615Z,23.50
2023-06-05T23:37:44.877Z,24.20
2023-06-05T23:40:46.849Z,23.70
2023-06-05T23:43:50.595Z,23.70
2023-06-05T23:46:52.566Z,24.70
2023-06-05T23:49:54.842Z,24.40
2023-06-05T23:52:57.278Z,24.50
2023-06-05T23:55:59.494Z,24.10
2023-06-05T23:59:01.563Z,24.30
